Have a Safe July 4th! 

Flight Track Log - Related Links

Times and Time Zones

All times are in EDT time to prevent confusion due to time zone crossing. See the ASQ4663 flight status page for this flight to view local times or setup timezone preferences in your user account.

Time Position Orientation Groundspeed Altitude Reporting Facility
EDT Latitude Longitude Course Direction KTS MPH feet Rate Location/Type
Wed 05:19:51 PM 44.3717 -73.1400 196° South 235 270 4,900  Level Boston Center
Wed 05:20:51 PM 44.3028 -73.1478 185° South 246 283 7,700 2,700 Climbing Boston Center
Wed 05:21:00 PM 44.1981 -73.2505 190° South  Level FlightAware Approximate
Wed 05:21:51 PM 44.2300 -73.1325 171° South 261 300 10,300  Level Boston Center
Wed 05:22:00 PM 44.1292 -73.2677 190° South  Level FlightAware Approximate
Wed 05:22:51 PM 44.1489 -73.1114 169° South 286 329 12,800  Level Boston Center
Wed 05:23:00 PM 44.0606 -73.2858 196° South  Level FlightAware Approximate
Wed 05:23:51 PM 44.0717 -73.1306 190° South 291 335 14,900  Level Boston Center
Wed 05:24:00 PM 43.9934 -73.3127 196° South  Level FlightAware Approximate
Wed 05:24:51 PM 43.9903 -73.1789 203° Southwest 307 353 16,000  Level Boston Center
Wed 05:25:00 PM 43.9262 -73.3395 196° South  Level FlightAware Approximate
Wed 05:25:51 PM 43.8961 -73.2325 202° Southwest 341 392 16,000  Level Boston Center
Wed 05:26:51 PM 43.7978 -73.2858 201° Southwest 374 430 16,000  Level Boston Center
Wed 05:27:51 PM 43.7056 -73.3361 202° Southwest 390 449 16,000 50 Level Boston Center
Wed 05:28:51 PM 43.5969 -73.3947 201° Southwest 390 449 16,100 50 Climbing Boston Center
Wed 05:29:51 PM 43.4983 -73.4475 201° Southwest 390 449 16,100  Level Boston Center
Wed 05:30:51 PM 43.4189 -73.4919 202° Southwest 390 449 16,100  Level Boston Center
Wed 05:31:51 PM 43.3036 -73.5528 201° Southwest 383 441 16,100  Level Boston Center
Wed 05:32:51 PM 43.2094 -73.6053 202° Southwest 372 428 16,100 -50 Level Boston Center
Wed 05:33:51 PM 43.1108 -73.6489 198° South 372 428 16,000 -50 Descending Boston Center
Wed 05:34:51 PM 43.0125 -73.6922 198° South 372 428 16,000  Level Boston Center
Wed 05:35:51 PM 42.9119 -73.7328 196° South 372 428 16,000  Level Boston Center
Wed 05:36:51 PM 42.8239 -73.7761 200° South 372 428 16,000  Level Boston Center
Wed 05:37:51 PM 42.7256 -73.8194 198° South 372 428 16,000  Level Boston Center
Wed 05:38:51 PM 42.6269 -73.8622 198° South 372 428 16,000  Level Boston Center
Wed 05:39:51 PM 42.5286 -73.9022 197° South 377 434 16,000  Level Boston Center
Wed 05:40:51 PM 42.4194 -73.9503 198° South 377 434 16,000  Level Boston Center
Wed 05:41:51 PM 42.3336 -73.9931 200° South 369 425 16,000  Level Boston Center
Wed 05:42:51 PM 42.2286 -74.0356 197° South 364 419 16,000  Level Boston Center
Wed 05:43:51 PM 42.1511 -74.0728 200° South 346 398 16,000 -250 Level Boston Center
Wed 05:44:51 PM 42.0631 -74.1094 197° South 334 384 15,500 -1,150 Descending Boston Center
Wed 05:45:51 PM 41.9747 -74.1492 198° South 316 364 13,700 -1,250 Descending Boston Center
Wed 05:46:51 PM 41.9056 -74.1781 197° South 304 350 13,000 -550 Descending Boston Center
Wed 05:47:51 PM 41.8194 -74.2175 199° South 304 350 12,600 -950 Descending Boston Center
Wed 05:48:51 PM 41.7483 -74.2458 197° South 304 350 11,100 -1,650 Descending Boston Center
Wed 05:49:51 PM 41.6686 -74.2797 198° South 298 343 9,300 -1,500 Descending Boston Center
Wed 05:50:51 PM 41.6036 -74.2919 188° South 274 315 8,100 -650 Descending Boston Center
Wed 05:51:51 PM 41.5242 -74.3172 193° South 268 308 8,000 -207 Descending Boston Center
Wed 05:53:45 PM 41.3833 -74.3500 190° South 268 308 7,500 -310 Descending New York TRACON
Wed 05:54:45 PM 41.3167 -74.3833 201° Southwest 258 297 7,100 -571 Descending New York TRACON
Wed 05:55:51 PM 41.2500 -74.4167 201° Southwest 222 255 6,300 -857 Descending New York TRACON
Wed 05:56:51 PM 41.1833 -74.4333 191° South 231 266 5,300 -600 Descending New York TRACON
Wed 05:57:51 PM 41.1500 -74.3833 132° Southeast 226 260 5,100 -100 Descending New York TRACON
Wed 05:58:51 PM 41.1167 -74.3167 124° Southeast 222 255 5,100  Level New York TRACON
Wed 05:59:51 PM 41.0833 -74.2500 124° Southeast 200 230 5,100 -100 Level New York TRACON
Wed 06:00:51 PM 41.0500 -74.2000 131° Southeast 198 228 4,900 -500 Descending New York TRACON
Wed 06:01:51 PM 41.0000 -74.1667 153° Southeast 183 211 4,100 -400 Descending New York TRACON
Wed 06:02:51 PM 40.9500 -74.1333 153° Southeast 176 203 4,100 -300 Level New York TRACON
Wed 06:03:51 PM 40.9167 -74.0833 131° Southeast 185 213 3,500 -476 Descending New York TRACON
Wed 06:04:57 PM 40.8833 -74.0667 159° South 157 181 3,100 -190 Descending New York TRACON
Wed 06:05:57 PM 40.8333 -74.0667 180° South 148 170 3,100 -400 Level New York TRACON
Wed 06:06:57 PM 40.8000 -74.1000 217° Southwest 151 174 2,300 -800 Descending New York TRACON

Login

Don't have an account? Register now (free) for customized features, flight alerts, and more!